createdAt,value
2018-09-05T00:01:35.405Z,19.67
2018-09-05T00:04:04.859Z,19.55
2018-09-05T00:06:36.069Z,19.46
2018-09-05T00:09:07.374Z,19.44
2018-09-05T00:11:37.128Z,19.42
2018-09-05T00:14:06.728Z,19.41
2018-09-05T00:16:37.158Z,19.35
2018-09-05T00:19:07.455Z,19.14
2018-09-05T00:21:36.894Z,19.24
2018-09-05T00:24:06.302Z,19.21
2018-09-05T00:26:36.359Z,19.29
2018-09-05T00:29:05.712Z,19.17
2018-09-05T00:31:35.124Z,19.08
2018-09-05T00:34:05.309Z,19.10
2018-09-05T00:36:34.908Z,19.14
2018-09-05T00:39:05.858Z,19.08
2018-09-05T00:41:45.932Z,18.94
2018-09-05T00:44:15.726Z,18.96
2018-09-05T00:46:45.459Z,18.98
2018-09-05T00:49:15.026Z,18.86
2018-09-05T00:51:44.497Z,18.79
2018-09-05T00:54:13.972Z,18.69
2018-09-05T00:56:43.487Z,18.59
2018-09-05T00:59:12.893Z,18.70
2018-09-05T01:01:42.360Z,18.62
2018-09-05T01:04:12.092Z,18.70
2018-09-05T01:06:42.151Z,18.71
2018-09-05T01:09:11.925Z,18.79
2018-09-05T01:11:41.387Z,18.82
2018-09-05T01:14:11.078Z,18.83
2018-09-05T01:16:40.526Z,18.87
2018-09-05T01:19:09.943Z,18.80
2018-09-05T01:21:39.449Z,18.79
2018-09-05T01:24:09.198Z,18.79
2018-09-05T01:26:38.569Z,18.74
2018-09-05T01:29:08.438Z,18.73
2018-09-05T01:31:38.127Z,18.64
2018-09-05T01:34:07.776Z,18.69
2018-09-05T01:36:37.207Z,18.67
2018-09-05T01:39:08.580Z,18.69
2018-09-05T01:41:38.096Z,18.64
2018-09-05T01:44:07.649Z,18.57
2018-09-05T01:46:37.213Z,18.54
2018-09-05T01:49:07.062Z,18.34
2018-09-05T01:51:36.635Z,18.38
2018-09-05T01:54:06.097Z,18.28
2018-09-05T01:56:35.670Z,18.26
2018-09-05T01:59:05.338Z,17.91
2018-09-05T02:01:35.163Z,18.07
2018-09-05T02:04:04.655Z,17.97
2018-09-05T02:06:34.125Z,17.85
2018-09-05T02:09:04.086Z,18.07
2018-09-05T02:11:33.707Z,18.08
2018-09-05T02:14:03.321Z,18.07
2018-09-05T02:16:32.894Z,17.99
2018-09-05T02:19:02.464Z,18.04
2018-09-05T02:21:31.936Z,17.93
2018-09-05T02:24:01.827Z,18.11
2018-09-05T02:26:31.367Z,18.17
2018-09-05T02:29:00.851Z,18.11
2018-09-05T02:31:30.639Z,18.05
2018-09-05T02:34:00.632Z,18.06
2018-09-05T02:36:30.137Z,18.09
2018-09-05T02:38:59.566Z,18.08
2018-09-05T02:41:29.111Z,17.94
2018-09-05T02:44:33.970Z,17.91
2018-09-05T02:47:03.484Z,17.65
2018-09-05T02:49:33.226Z,17.66
2018-09-05T02:52:02.830Z,17.69
2018-09-05T02:54:32.655Z,17.71
2018-09-05T02:57:02.009Z,17.69
2018-09-05T02:59:31.594Z,17.69
2018-09-05T03:02:01.019Z,17.84
2018-09-05T03:04:30.579Z,17.72
2018-09-05T03:07:00.172Z,17.88
2018-09-05T03:09:30.949Z,18.07
2018-09-05T03:12:00.766Z,18.19
2018-09-05T03:14:30.294Z,18.15
2018-09-05T03:17:00.391Z,18.05
2018-09-05T03:19:30.024Z,18.11
2018-09-05T03:21:59.678Z,18.20
2018-09-05T03:24:29.266Z,18.23
2018-09-05T03:27:03.715Z,18.36
2018-09-05T03:29:33.516Z,18.34
2018-09-05T03:32:03.399Z,18.53
2018-09-05T03:34:33.346Z,18.50
2018-09-05T03:37:03.467Z,18.56
2018-09-05T03:39:33.092Z,18.46
2018-09-05T03:42:02.712Z,18.60
2018-09-05T03:44:32.396Z,18.56
2018-09-05T03:47:02.092Z,18.69
2018-09-05T03:49:31.619Z,18.74
2018-09-05T03:52:01.229Z,18.65
2018-09-05T03:54:30.656Z,18.64
2018-09-05T03:57:00.100Z,18.61
2018-09-05T03:59:29.794Z,18.78
2018-09-05T04:01:59.132Z,18.74
2018-09-05T04:04:28.638Z,18.73
2018-09-05T04:06:58.064Z,18.74
2018-09-05T04:09:27.495Z,18.81
2018-09-05T04:11:57.337Z,18.85
2018-09-05T04:14:26.697Z,18.87
2018-09-05T04:16:56.132Z,19.02
2018-09-05T04:19:25.536Z,18.92
2018-09-05T04:21:55.386Z,18.85
2018-09-05T04:24:25.928Z,18.84
2018-09-05T04:26:55.337Z,18.76
2018-09-05T04:29:24.731Z,18.89
2018-09-05T04:31:54.193Z,18.87
2018-09-05T04:34:23.578Z,18.79
2018-09-05T04:36:53.044Z,18.75
2018-09-05T04:39:22.671Z,18.87
2018-09-05T04:41:52.429Z,18.85
2018-09-05T04:44:21.907Z,18.98
2018-09-05T04:46:51.281Z,18.81
2018-09-05T04:49:20.879Z,18.75
2018-09-05T04:51:50.271Z,18.88
2018-09-05T04:54:19.929Z,18.92
2018-09-05T04:56:49.363Z,18.96
2018-09-05T04:59:18.729Z,18.97
2018-09-05T05:01:48.163Z,18.91
2018-09-05T05:04:17.842Z,19.12
2018-09-05T05:06:50.426Z,18.92
2018-09-05T05:09:19.843Z,18.92
2018-09-05T05:11:49.267Z,18.94
2018-09-05T05:14:18.629Z,18.98
2018-09-05T05:16:47.963Z,18.84
2018-09-05T05:19:17.299Z,18.98
2018-09-05T05:21:46.689Z,18.91
2018-09-05T05:24:16.017Z,18.96
2018-09-05T05:26:45.532Z,19.04
2018-09-05T05:29:15.072Z,18.81
2018-09-05T05:31:44.783Z,18.73
2018-09-05T05:34:14.257Z,18.78
2018-09-05T05:36:43.653Z,18.83
2018-09-05T05:39:13.032Z,18.73
2018-09-05T05:41:42.398Z,18.75
2018-09-05T05:44:11.715Z,19.06
2018-09-05T05:46:41.206Z,19.22
2018-09-05T05:49:10.519Z,19.21
2018-09-05T05:51:40.140Z,19.04
2018-09-05T05:54:09.471Z,18.97
2018-09-05T05:56:38.954Z,18.99
2018-09-05T05:59:08.541Z,19.04
2018-09-05T06:01:37.881Z,19.04
2018-09-05T06:04:07.205Z,19.03
2018-09-05T06:06:36.620Z,19.12
2018-09-05T06:09:09.491Z,19.35
2018-09-05T06:11:39.127Z,19.23
2018-09-05T06:14:08.481Z,18.91
2018-09-05T06:16:38.116Z,18.95
2018-09-05T06:19:07.579Z,18.80
2018-09-05T06:21:37.335Z,18.88
2018-09-05T06:24:06.962Z,19.08
2018-09-05T06:26:36.392Z,19.11
2018-09-05T06:29:05.745Z,19.31
2018-09-05T06:31:35.251Z,19.30
2018-09-05T06:34:04.945Z,19.20
2018-09-05T06:36:34.591Z,19.28
2018-09-05T06:39:04.450Z,19.56
2018-09-05T06:41:34.170Z,19.52
2018-09-05T06:44:03.698Z,19.54
2018-09-05T06:46:33.213Z,19.73
2018-09-05T06:49:02.910Z,19.82
2018-09-05T06:51:32.464Z,19.95
2018-09-05T06:54:01.955Z,19.86
2018-09-05T06:56:31.848Z,20.02
2018-09-05T06:59:01.313Z,20.31
2018-09-05T07:01:30.714Z,20.43
2018-09-05T07:04:00.199Z,20.38
2018-09-05T07:06:29.671Z,20.52
2018-09-05T07:08:59.180Z,20.54
2018-09-05T07:11:28.747Z,20.60
2018-09-05T07:13:58.524Z,20.59
2018-09-05T07:16:27.927Z,20.66
2018-09-05T07:18:57.812Z,20.41
2018-09-05T07:21:27.474Z,20.49
2018-09-05T07:23:56.851Z,20.69
2018-09-05T07:26:27.054Z,20.82
2018-09-05T07:28:56.520Z,20.94
2018-09-05T07:31:26.141Z,21.11
2018-09-05T07:33:55.691Z,21.13
2018-09-05T07:36:25.112Z,21.48
2018-09-05T07:38:54.642Z,21.47
2018-09-05T07:41:24.860Z,21.29
2018-09-05T07:43:54.368Z,21.52
2018-09-05T07:46:24.251Z,21.44
2018-09-05T07:48:53.824Z,21.46
2018-09-05T07:51:23.506Z,21.46
2018-09-05T07:53:53.073Z,21.46
2018-09-05T07:56:22.490Z,21.50
2018-09-05T07:58:51.826Z,21.50
2018-09-05T08:01:21.204Z,21.27
2018-09-05T08:03:51.199Z,20.81
2018-09-05T08:06:20.627Z,20.75
2018-09-05T08:08:50.057Z,20.90
2018-09-05T08:11:19.435Z,20.73
2018-09-05T08:13:48.757Z,20.73
2018-09-05T08:16:35.459Z,20.78
2018-09-05T08:19:22.361Z,20.66
2018-09-05T08:22:11.488Z,20.87
2018-09-05T08:24:41.598Z,20.84
2018-09-05T08:27:11.122Z,20.80
2018-09-05T08:29:40.594Z,21.07
2018-09-05T08:32:10.166Z,20.87
2018-09-05T08:34:39.678Z,20.83
2018-09-05T08:37:09.180Z,21.17
2018-09-05T08:39:38.383Z,21.39
2018-09-05T08:42:08.013Z,21.23
2018-09-05T08:44:37.405Z,20.83
2018-09-05T08:47:06.730Z,20.88
2018-09-05T08:49:36.232Z,20.92
2018-09-05T08:52:05.593Z,21.05
2018-09-05T08:54:34.996Z,21.00
2018-09-05T08:57:04.557Z,20.87
2018-09-05T08:59:33.886Z,20.88
2018-09-05T09:02:03.402Z,21.51
2018-09-05T09:04:32.924Z,21.71
2018-09-05T09:07:02.351Z,21.95
2018-09-05T09:09:31.686Z,22.17
2018-09-05T09:12:01.099Z,22.21
2018-09-05T09:14:30.426Z,21.87
2018-09-05T09:17:00.264Z,21.95
2018-09-05T09:19:29.756Z,21.90
2018-09-05T09:21:59.227Z,22.67
2018-09-05T09:24:28.630Z,23.25
2018-09-05T09:26:58.291Z,24.13
2018-09-05T09:29:27.813Z,24.47
2018-09-05T09:31:57.178Z,25.37
2018-09-05T09:34:26.588Z,25.56
2018-09-05T09:36:56.046Z,25.99
2018-09-05T09:39:25.691Z,25.57
2018-09-05T09:41:55.166Z,25.58
2018-09-05T09:44:24.488Z,26.62
2018-09-05T09:46:53.926Z,27.55
2018-09-05T09:49:23.441Z,26.73
2018-09-05T09:51:56.954Z,27.27
2018-09-05T09:54:26.380Z,28.53
2018-09-05T09:56:55.846Z,32.31
2018-09-05T09:59:25.292Z,32.55
2018-09-05T10:02:00.071Z,31.46
2018-09-05T10:04:34.628Z,29.28
2018-09-05T10:07:09.734Z,28.16
2018-09-05T10:09:44.177Z,27.33
2018-09-05T10:12:18.669Z,27.43
2018-09-05T10:14:53.568Z,27.38
2018-09-05T10:17:28.840Z,27.30
2018-09-05T10:19:59.560Z,26.77
2018-09-05T10:22:30.120Z,26.87
2018-09-05T10:24:59.608Z,27.60
2018-09-05T10:27:29.972Z,28.75
2018-09-05T10:29:59.499Z,29.02
2018-09-05T10:32:28.909Z,31.03
2018-09-05T10:34:58.347Z,31.66
2018-09-05T10:37:27.918Z,33.89
2018-09-05T10:39:57.393Z,33.71
2018-09-05T10:42:26.807Z,35.84
2018-09-05T10:44:57.068Z,36.47
2018-09-05T10:47:26.615Z,36.45
2018-09-05T10:49:56.166Z,37.82
2018-09-05T10:52:25.564Z,37.87
2018-09-05T10:54:54.964Z,34.43
2018-09-05T10:57:24.343Z,33.93
2018-09-05T10:59:56.696Z,34.89
2018-09-05T11:02:26.116Z,36.23
2018-09-05T11:04:56.238Z,37.88
2018-09-05T11:07:25.679Z,37.22
2018-09-05T11:09:55.136Z,35.63
2018-09-05T11:12:24.717Z,35.90
2018-09-05T11:14:54.193Z,38.12
2018-09-05T11:17:24.563Z,37.82
2018-09-05T11:19:54.269Z,39.51
2018-09-05T11:22:23.818Z,38.35
2018-09-05T11:24:53.387Z,35.40
2018-09-05T11:27:23.928Z,36.60
2018-09-05T11:29:53.328Z,34.90
2018-09-05T11:32:22.714Z,32.83
2018-09-05T11:34:52.111Z,34.08
2018-09-05T11:37:21.615Z,33.76
2018-09-05T11:39:51.037Z,33.81
2018-09-05T11:42:20.547Z,33.28
2018-09-05T11:44:49.934Z,32.80
2018-09-05T11:47:19.274Z,34.59
2018-09-05T11:49:49.116Z,37.33
2018-09-05T11:52:18.463Z,37.40
2018-09-05T11:54:47.861Z,38.61
2018-09-05T11:57:17.397Z,39.82
2018-09-05T11:59:46.894Z,40.47
2018-09-05T12:02:16.388Z,38.30
2018-09-05T12:04:45.821Z,38.75
2018-09-05T12:07:15.214Z,38.70
2018-09-05T12:09:44.680Z,37.06
2018-09-05T12:12:14.946Z,35.40
2018-09-05T12:14:44.447Z,33.67
2018-09-05T12:17:13.830Z,32.23
2018-09-05T12:19:43.282Z,31.23
2018-09-05T12:22:12.776Z,31.04
2018-09-05T12:24:42.176Z,30.42
2018-09-05T12:27:11.837Z,30.26
2018-09-05T12:29:41.332Z,30.75
2018-09-05T12:32:10.790Z,31.02
2018-09-05T12:34:40.901Z,31.43
2018-09-05T12:37:10.273Z,31.45
2018-09-05T12:39:39.615Z,31.09
2018-09-05T12:42:09.175Z,30.64
2018-09-05T12:44:38.741Z,31.68
2018-09-05T12:47:08.102Z,33.76
2018-09-05T12:49:37.599Z,35.71
2018-09-05T12:52:07.031Z,37.20
2018-09-05T12:54:36.609Z,38.05
2018-09-05T12:57:06.304Z,38.24
2018-09-05T12:59:35.814Z,36.35
2018-09-05T13:02:05.440Z,34.69
2018-09-05T13:04:35.049Z,34.68
2018-09-05T13:07:04.609Z,34.88
2018-09-05T13:09:34.230Z,34.18
2018-09-05T13:12:03.748Z,32.89
2018-09-05T13:14:33.135Z,31.50
2018-09-05T13:17:02.555Z,30.84
2018-09-05T13:19:32.551Z,31.82
2018-09-05T13:22:01.957Z,34.09
2018-09-05T13:24:31.334Z,36.05
2018-09-05T13:27:00.941Z,36.13
2018-09-05T13:29:30.359Z,35.24
2018-09-05T13:32:00.172Z,35.62
2018-09-05T13:34:29.855Z,35.19
2018-09-05T13:36:59.301Z,34.57
2018-09-05T13:39:28.620Z,35.66
2018-09-05T13:41:58.136Z,36.60
2018-09-05T13:44:27.633Z,37.17
2018-09-05T13:46:57.070Z,37.00
2018-09-05T13:49:26.475Z,35.88
2018-09-05T13:52:01.224Z,34.58
2018-09-05T13:54:30.738Z,33.69
2018-09-05T13:57:00.568Z,33.29
2018-09-05T13:59:30.048Z,32.85
2018-09-05T14:02:00.112Z,32.29
2018-09-05T14:04:29.661Z,32.90
2018-09-05T14:06:59.055Z,33.38
2018-09-05T14:09:29.137Z,34.05
2018-09-05T14:11:58.510Z,33.50
2018-09-05T14:14:28.068Z,33.60
2018-09-05T14:16:57.673Z,33.42
2018-09-05T14:19:27.107Z,32.45
2018-09-05T14:21:56.635Z,32.14
2018-09-05T14:24:26.543Z,31.15
2018-09-05T14:26:56.039Z,31.12
2018-09-05T14:29:25.460Z,30.68
2018-09-05T14:31:54.912Z,30.71
2018-09-05T14:34:24.324Z,30.44
2018-09-05T14:36:53.792Z,30.78
2018-09-05T14:39:23.309Z,30.97
2018-09-05T14:41:52.722Z,31.46
2018-09-05T14:44:22.158Z,31.83
2018-09-05T14:46:51.770Z,31.96
2018-09-05T14:49:21.135Z,32.04
2018-09-05T14:51:51.417Z,31.54
2018-09-05T14:54:20.905Z,30.81
2018-09-05T14:56:50.250Z,30.84
2018-09-05T14:59:19.629Z,30.81
2018-09-05T15:01:49.143Z,30.79
2018-09-05T15:04:18.612Z,30.73
2018-09-05T15:06:48.128Z,30.48
2018-09-05T15:09:18.252Z,30.36
2018-09-05T15:11:47.645Z,30.61
2018-09-05T15:14:17.015Z,30.39
2018-09-05T15:16:46.399Z,30.30
2018-09-05T15:19:15.879Z,30.38
2018-09-05T15:21:45.281Z,30.23
2018-09-05T15:24:14.655Z,30.17
2018-09-05T15:26:44.060Z,30.13
2018-09-05T15:29:13.458Z,29.85
2018-09-05T15:31:43.039Z,29.48
2018-09-05T15:34:12.505Z,29.59
2018-09-05T15:36:42.026Z,29.69
2018-09-05T15:39:12.107Z,29.66
2018-09-05T15:41:41.498Z,29.60
2018-09-05T15:44:10.841Z,29.70
2018-09-05T15:46:40.286Z,29.55
2018-09-05T15:49:09.741Z,29.19
2018-09-05T15:51:39.276Z,29.16
2018-09-05T15:54:08.808Z,29.21
2018-09-05T15:56:38.261Z,29.09
2018-09-05T15:59:07.574Z,28.96
2018-09-05T16:01:36.937Z,28.58
2018-09-05T16:04:06.430Z,28.76
2018-09-05T16:06:36.713Z,28.90
2018-09-05T16:09:08.987Z,28.93
2018-09-05T16:11:38.375Z,28.96
2018-09-05T16:14:07.791Z,28.95
2018-09-05T16:16:37.772Z,28.89
2018-09-05T16:19:07.207Z,28.80
2018-09-05T16:21:37.096Z,28.82
2018-09-05T16:24:06.755Z,28.74
2018-09-05T16:26:36.134Z,28.62
2018-09-05T16:29:05.699Z,28.85
2018-09-05T16:31:35.440Z,28.58
2018-09-05T16:34:04.879Z,28.50
2018-09-05T16:36:34.244Z,28.25
2018-09-05T16:39:03.827Z,28.29
2018-09-05T16:41:33.362Z,28.30
2018-09-05T16:44:02.785Z,28.39
2018-09-05T16:46:32.272Z,28.44
2018-09-05T16:49:01.682Z,28.26
2018-09-05T16:51:31.166Z,28.24
2018-09-05T16:54:00.858Z,28.04
2018-09-05T16:56:30.361Z,28.08
2018-09-05T16:58:59.848Z,27.89
2018-09-05T17:01:29.256Z,27.82
2018-09-05T17:03:58.621Z,27.68
2018-09-05T17:06:28.080Z,27.50
2018-09-05T17:08:57.683Z,27.45
2018-09-05T17:11:27.243Z,27.51
2018-09-05T17:13:56.678Z,27.51
2018-09-05T17:16:26.103Z,27.46
2018-09-05T17:18:55.483Z,27.56
2018-09-05T17:21:24.885Z,27.61
2018-09-05T17:23:54.801Z,27.38
2018-09-05T17:26:24.408Z,27.29
2018-09-05T17:28:53.991Z,27.23
2018-09-05T17:31:23.476Z,27.16
2018-09-05T17:33:52.820Z,27.21
2018-09-05T17:36:22.354Z,27.01
2018-09-05T17:38:51.924Z,26.99
2018-09-05T17:41:21.563Z,26.99
2018-09-05T17:43:51.014Z,26.83
2018-09-05T17:46:20.784Z,26.67
2018-09-05T17:48:50.355Z,26.57
2018-09-05T17:51:19.974Z,26.52
2018-09-05T17:53:49.450Z,26.49
2018-09-05T17:56:18.941Z,26.29
2018-09-05T17:58:48.466Z,26.34
2018-09-05T18:01:20.417Z,26.19
2018-09-05T18:03:49.912Z,26.16
2018-09-05T18:06:20.416Z,25.98
2018-09-05T18:08:50.208Z,25.82
2018-09-05T18:11:19.887Z,25.68
2018-09-05T18:13:49.405Z,25.69
2018-09-05T18:16:19.045Z,25.61
2018-09-05T18:18:48.454Z,25.28
2018-09-05T18:21:17.886Z,25.21
2018-09-05T18:23:47.910Z,25.27
2018-09-05T18:26:17.475Z,25.06
2018-09-05T18:28:46.891Z,25.03
2018-09-05T18:31:16.680Z,24.96
2018-09-05T18:33:46.160Z,24.83
2018-09-05T18:36:15.524Z,24.76
2018-09-05T18:38:45.136Z,24.70
2018-09-05T18:41:14.864Z,24.54
2018-09-05T18:43:44.454Z,24.27
2018-09-05T18:46:20.073Z,24.27
2018-09-05T18:48:49.431Z,24.13
2018-09-05T18:51:19.449Z,24.29
2018-09-05T18:53:49.054Z,24.24
2018-09-05T18:56:18.600Z,24.30
2018-09-05T18:58:48.120Z,24.31
2018-09-05T19:01:17.462Z,24.19
2018-09-05T19:03:46.902Z,24.01
2018-09-05T19:06:16.533Z,23.93
2018-09-05T19:08:46.048Z,23.93
2018-09-05T19:11:15.552Z,23.81
2018-09-05T19:13:45.402Z,23.79
2018-09-05T19:16:14.934Z,23.83
2018-09-05T19:18:44.485Z,23.70
2018-09-05T19:21:14.639Z,23.52
2018-09-05T19:23:44.145Z,23.71
2018-09-05T19:26:13.677Z,23.66
2018-09-05T19:28:43.204Z,23.69
2018-09-05T19:31:12.798Z,23.63
2018-09-05T19:33:42.427Z,23.47
2018-09-05T19:36:12.051Z,23.48
2018-09-05T19:38:41.530Z,23.37
2018-09-05T19:41:11.160Z,23.41
2018-09-05T19:43:40.599Z,23.25
2018-09-05T19:46:10.677Z,23.30
2018-09-05T19:48:40.094Z,23.25
2018-09-05T19:51:09.664Z,23.19
2018-09-05T19:53:39.113Z,23.18
2018-09-05T19:56:08.752Z,23.03
2018-09-05T19:58:38.641Z,23.06
2018-09-05T20:01:08.312Z,22.99
2018-09-05T20:03:37.918Z,23.07
2018-09-05T20:06:07.668Z,23.06
2018-09-05T20:08:37.257Z,22.85
2018-09-05T20:11:06.847Z,22.88
2018-09-05T20:13:36.683Z,22.82
2018-09-05T20:16:06.808Z,22.76
2018-09-05T20:18:36.357Z,22.88
2018-09-05T20:21:06.593Z,22.75
2018-09-05T20:23:36.330Z,22.75
2018-09-05T20:26:06.299Z,22.77
2018-09-05T20:28:35.998Z,22.65
2018-09-05T20:31:05.647Z,22.64
2018-09-05T20:33:35.084Z,22.55
2018-09-05T20:36:04.454Z,22.46
2018-09-05T20:38:33.908Z,22.42
2018-09-05T20:41:03.283Z,22.30
2018-09-05T20:43:33.134Z,22.22
2018-09-05T20:46:02.601Z,22.37
2018-09-05T20:48:32.199Z,22.38
2018-09-05T20:51:01.599Z,22.32
2018-09-05T20:53:31.092Z,22.15
2018-09-05T20:56:00.629Z,22.11
2018-09-05T20:58:30.031Z,21.98
2018-09-05T21:00:59.651Z,22.00
2018-09-05T21:03:29.271Z,21.98
2018-09-05T21:05:59.343Z,22.04
2018-09-05T21:08:29.079Z,21.79
2018-09-05T21:10:58.776Z,21.91
2018-09-05T21:13:28.582Z,22.00
2018-09-05T21:15:58.009Z,22.07
2018-09-05T21:18:27.560Z,21.96
2018-09-05T21:20:59.428Z,21.97
2018-09-05T21:23:31.272Z,21.79
2018-09-05T21:26:01.089Z,21.86
2018-09-05T21:28:31.037Z,21.81
2018-09-05T21:31:00.674Z,21.72
2018-09-05T21:33:30.392Z,21.57
2018-09-05T21:35:59.866Z,21.74
2018-09-05T21:38:29.347Z,21.56
2018-09-05T21:40:58.764Z,21.82
2018-09-05T21:43:28.384Z,21.83
2018-09-05T21:45:58.084Z,21.66
2018-09-05T21:48:28.010Z,21.65
2018-09-05T21:50:57.495Z,21.64
2018-09-05T21:53:26.916Z,21.65
2018-09-05T21:55:56.816Z,21.75
2018-09-05T21:58:26.352Z,21.47
2018-09-05T22:00:56.072Z,21.53
2018-09-05T22:03:26.465Z,21.60
2018-09-05T22:05:56.107Z,21.45
2018-09-05T22:08:25.754Z,21.48
2018-09-05T22:10:55.990Z,21.36
2018-09-05T22:13:25.518Z,21.26
2018-09-05T22:15:54.938Z,21.30
2018-09-05T22:18:24.336Z,21.25
2018-09-05T22:20:53.850Z,21.31
2018-09-05T22:23:23.331Z,21.33
2018-09-05T22:25:52.753Z,21.43
2018-09-05T22:28:22.134Z,21.36
2018-09-05T22:30:53.436Z,21.21
2018-09-05T22:33:23.181Z,21.15
2018-09-05T22:35:52.651Z,21.35
2018-09-05T22:38:22.272Z,21.24
2018-09-05T22:40:52.798Z,21.31
2018-09-05T22:43:39.200Z,21.15
2018-09-05T22:46:25.741Z,21.07
2018-09-05T22:51:22.197Z,21.12
2018-09-05T22:54:21.408Z,20.71
2018-09-05T22:57:36.554Z,20.83
2018-09-05T23:02:35.567Z,20.86
2018-09-05T23:08:43.822Z,20.65
2018-09-05T23:12:04.657Z,20.46
2018-09-05T23:14:57.371Z,20.63
2018-09-05T23:18:51.779Z,20.77
2018-09-05T23:21:27.840Z,20.76
2018-09-05T23:24:04.324Z,20.87
2018-09-05T23:26:33.844Z,20.88
2018-09-05T23:29:03.348Z,20.91
2018-09-05T23:31:32.853Z,21.01
2018-09-05T23:34:02.789Z,21.06
2018-09-05T23:36:32.147Z,20.94
2018-09-05T23:39:01.527Z,20.81
2018-09-05T23:41:31.051Z,20.82
2018-09-05T23:44:00.819Z,20.89
2018-09-05T23:46:30.378Z,20.87
2018-09-05T23:48:59.776Z,20.86
2018-09-05T23:51:29.236Z,20.90
2018-09-05T23:53:58.703Z,20.87
2018-09-05T23:56:28.415Z,20.73
2018-09-05T23:58:57.896Z,20.73
